sensor_id;sensor_type;location;lat;lon;timestamp;P1;durP1;ratioP1;P2;durP2;ratioP2
12966;SDS011;6548;49.996;8.238;2023-08-06T00:02:13;2.40;;;2.20;;
12966;SDS011;6548;49.996;8.238;2023-08-06T00:04:38;2.60;;;2.40;;
12966;SDS011;6548;49.996;8.238;2023-08-06T00:07:04;2.92;;;1.80;;
12966;SDS011;6548;49.996;8.238;2023-08-06T00:09:29;2.85;;;2.13;;
12966;SDS011;6548;49.996;8.238;2023-08-06T00:11:55;4.03;;;2.88;;
12966;SDS011;6548;49.996;8.238;2023-08-06T00:14:20;2.70;;;2.00;;
12966;SDS011;6548;49.996;8.238;2023-08-06T00:16:46;5.20;;;2.40;;
12966;SDS011;6548;49.996;8.238;2023-08-06T00:19:12;2.00;;;1.80;;
12966;SDS011;6548;49.996;8.238;2023-08-06T00:21:37;3.95;;;2.15;;
12966;SDS011;6548;49.996;8.238;2023-08-06T00:24:03;3.70;;;2.30;;
12966;SDS011;6548;49.996;8.238;2023-08-06T00:26:28;2.45;;;2.20;;
12966;SDS011;6548;49.996;8.238;2023-08-06T00:28:54;2.63;;;2.15;;
12966;SDS011;6548;49.996;8.238;2023-08-06T00:31:19;3.75;;;2.47;;
12966;SDS011;6548;49.996;8.238;2023-08-06T00:33:45;2.78;;;1.90;;
12966;SDS011;6548;49.996;8.238;2023-08-06T00:36:10;2.80;;;2.17;;
12966;SDS011;6548;49.996;8.238;2023-08-06T00:38:36;2.20;;;2.00;;
12966;SDS011;6548;49.996;8.238;2023-08-06T00:41:02;2.78;;;2.40;;
12966;SDS011;6548;49.996;8.238;2023-08-06T00:43:27;3.53;;;2.25;;
12966;SDS011;6548;49.996;8.238;2023-08-06T00:45:53;4.32;;;2.30;;
12966;SDS011;6548;49.996;8.238;2023-08-06T00:48:18;3.58;;;2.35;;
12966;SDS011;6548;49.996;8.238;2023-08-06T00:50:45;3.25;;;1.90;;
12966;SDS011;6548;49.996;8.238;2023-08-06T00:53:11;4.30;;;2.35;;
12966;SDS011;6548;49.996;8.238;2023-08-06T00:55:37;2.40;;;1.90;;
12966;SDS011;6548;49.996;8.238;2023-08-06T00:58:02;4.90;;;2.33;;
12966;SDS011;6548;49.996;8.238;2023-08-06T01:00:29;6.78;;;2.42;;
12966;SDS011;6548;49.996;8.238;2023-08-06T01:02:55;3.75;;;2.67;;
12966;SDS011;6548;49.996;8.238;2023-08-06T01:05:20;2.80;;;2.22;;
12966;SDS011;6548;49.996;8.238;2023-08-06T01:08:07;3.47;;;2.55;;
12966;SDS011;6548;49.996;8.238;2023-08-06T01:10:44;2.58;;;2.30;;
12966;SDS011;6548;49.996;8.238;2023-08-06T01:13:32;2.85;;;2.40;;
12966;SDS011;6548;49.996;8.238;2023-08-06T01:16:04;3.95;;;2.63;;
12966;SDS011;6548;49.996;8.238;2023-08-06T01:18:31;3.30;;;1.90;;
12966;SDS011;6548;49.996;8.238;2023-08-06T01:20:57;4.50;;;2.28;;
12966;SDS011;6548;49.996;8.238;2023-08-06T01:23:22;3.70;;;2.47;;
12966;SDS011;6548;49.996;8.238;2023-08-06T01:25:56;2.88;;;2.47;;
12966;SDS011;6548;49.996;8.238;2023-08-06T01:31:10;3.60;;;2.22;;
12966;SDS011;6548;49.996;8.238;2023-08-06T01:33:40;3.92;;;2.13;;
12966;SDS011;6548;49.996;8.238;2023-08-06T01:36:09;3.20;;;2.17;;
12966;SDS011;6548;49.996;8.238;2023-08-06T01:38:35;3.22;;;2.42;;
12966;SDS011;6548;49.996;8.238;2023-08-06T01:41:00;3.25;;;2.10;;
12966;SDS011;6548;49.996;8.238;2023-08-06T01:43:26;3.55;;;2.10;;
12966;SDS011;6548;49.996;8.238;2023-08-06T01:45:52;3.00;;;2.17;;
12966;SDS011;6548;49.996;8.238;2023-08-06T01:48:17;2.38;;;2.17;;
12966;SDS011;6548;49.996;8.238;2023-08-06T01:50:43;3.17;;;2.20;;
12966;SDS011;6548;49.996;8.238;2023-08-06T01:53:11;3.08;;;2.25;;
12966;SDS011;6548;49.996;8.238;2023-08-06T01:55:37;4.72;;;2.20;;
12966;SDS011;6548;49.996;8.238;2023-08-06T01:58:02;3.50;;;2.10;;
12966;SDS011;6548;49.996;8.238;2023-08-06T02:00:28;2.88;;;2.47;;
12966;SDS011;6548;49.996;8.238;2023-08-06T02:02:53;4.00;;;2.33;;
12966;SDS011;6548;49.996;8.238;2023-08-06T02:05:19;9.30;;;3.45;;
12966;SDS011;6548;49.996;8.238;2023-08-06T02:07:45;3.35;;;2.20;;
12966;SDS011;6548;49.996;8.238;2023-08-06T02:10:10;3.35;;;2.22;;
12966;SDS011;6548;49.996;8.238;2023-08-06T02:12:36;3.05;;;2.00;;
12966;SDS011;6548;49.996;8.238;2023-08-06T02:15:01;3.67;;;2.25;;
12966;SDS011;6548;49.996;8.238;2023-08-06T02:17:27;3.50;;;2.28;;
12966;SDS011;6548;49.996;8.238;2023-08-06T02:19:53;3.60;;;2.00;;
12966;SDS011;6548;49.996;8.238;2023-08-06T02:22:18;3.05;;;2.67;;
12966;SDS011;6548;49.996;8.238;2023-08-06T02:24:44;3.50;;;2.25;;
12966;SDS011;6548;49.996;8.238;2023-08-06T02:27:10;3.58;;;2.38;;
12966;SDS011;6548;49.996;8.238;2023-08-06T02:29:35;4.05;;;2.45;;
12966;SDS011;6548;49.996;8.238;2023-08-06T02:32:01;4.07;;;2.38;;
12966;SDS011;6548;49.996;8.238;2023-08-06T02:34:27;7.57;;;2.72;;
12966;SDS011;6548;49.996;8.238;2023-08-06T02:36:53;3.60;;;2.30;;
12966;SDS011;6548;49.996;8.238;2023-08-06T02:39:18;4.40;;;2.22;;
12966;SDS011;6548;49.996;8.238;2023-08-06T02:41:44;2.70;;;1.90;;
12966;SDS011;6548;49.996;8.238;2023-08-06T02:44:09;4.05;;;2.30;;
12966;SDS011;6548;49.996;8.238;2023-08-06T02:46:35;2.92;;;2.00;;
12966;SDS011;6548;49.996;8.238;2023-08-06T02:49:01;3.67;;;2.35;;
12966;SDS011;6548;49.996;8.238;2023-08-06T02:51:26;5.60;;;2.20;;
12966;SDS011;6548;49.996;8.238;2023-08-06T02:53:52;3.65;;;2.72;;
12966;SDS011;6548;49.996;8.238;2023-08-06T02:56:17;2.67;;;2.05;;
12966;SDS011;6548;49.996;8.238;2023-08-06T02:58:43;3.45;;;2.20;;
12966;SDS011;6548;49.996;8.238;2023-08-06T03:01:08;4.78;;;3.05;;
12966;SDS011;6548;49.996;8.238;2023-08-06T03:03:34;3.22;;;1.90;;
12966;SDS011;6548;49.996;8.238;2023-08-06T03:06:00;3.03;;;2.30;;
12966;SDS011;6548;49.996;8.238;2023-08-06T03:08:26;4.78;;;2.20;;
12966;SDS011;6548;49.996;8.238;2023-08-06T03:10:51;2.92;;;2.13;;
12966;SDS011;6548;49.996;8.238;2023-08-06T03:13:17;3.90;;;2.13;;
12966;SDS011;6548;49.996;8.238;2023-08-06T03:15:43;2.90;;;2.47;;
12966;SDS011;6548;49.996;8.238;2023-08-06T03:18:19;4.30;;;2.85;;
12966;SDS011;6548;49.996;8.238;2023-08-06T03:20:46;2.25;;;2.03;;
12966;SDS011;6548;49.996;8.238;2023-08-06T03:23:11;3.92;;;2.80;;
12966;SDS011;6548;49.996;8.238;2023-08-06T03:25:37;4.53;;;2.70;;
12966;SDS011;6548;49.996;8.238;2023-08-06T03:28:02;3.28;;;2.20;;
12966;SDS011;6548;49.996;8.238;2023-08-06T03:30:28;4.18;;;2.42;;
12966;SDS011;6548;49.996;8.238;2023-08-06T03:32:53;2.63;;;2.35;;
12966;SDS011;6548;49.996;8.238;2023-08-06T03:35:19;2.80;;;2.00;;
12966;SDS011;6548;49.996;8.238;2023-08-06T03:37:45;4.88;;;2.50;;
12966;SDS011;6548;49.996;8.238;2023-08-06T03:40:10;5.28;;;2.42;;
12966;SDS011;6548;49.996;8.238;2023-08-06T03:42:36;5.10;;;2.00;;
12966;SDS011;6548;49.996;8.238;2023-08-06T03:45:01;4.50;;;2.30;;
12966;SDS011;6548;49.996;8.238;2023-08-06T03:47:28;4.90;;;2.30;;
12966;SDS011;6548;49.996;8.238;2023-08-06T03:49:53;7.10;;;2.30;;
12966;SDS011;6548;49.996;8.238;2023-08-06T03:52:19;4.55;;;2.10;;
12966;SDS011;6548;49.996;8.238;2023-08-06T03:54:44;5.65;;;1.77;;
12966;SDS011;6548;49.996;8.238;2023-08-06T03:57:10;3.58;;;2.15;;
12966;SDS011;6548;49.996;8.238;2023-08-06T03:59:35;3.13;;;2.17;;
12966;SDS011;6548;49.996;8.238;2023-08-06T04:02:01;4.20;;;2.00;;
12966;SDS011;6548;49.996;8.238;2023-08-06T04:04:27;3.33;;;2.05;;
12966;SDS011;6548;49.996;8.238;2023-08-06T04:06:53;3.08;;;1.60;;
12966;SDS011;6548;49.996;8.238;2023-08-06T04:09:18;2.92;;;1.60;;
12966;SDS011;6548;49.996;8.238;2023-08-06T04:11:44;2.28;;;1.63;;
12966;SDS011;6548;49.996;8.238;2023-08-06T04:14:09;3.45;;;1.80;;
12966;SDS011;6548;49.996;8.238;2023-08-06T04:16:35;4.88;;;1.63;;
12966;SDS011;6548;49.996;8.238;2023-08-06T04:19:00;3.55;;;1.48;;
12966;SDS011;6548;49.996;8.238;2023-08-06T04:21:26;5.18;;;2.10;;
12966;SDS011;6548;49.996;8.238;2023-08-06T04:23:52;4.30;;;1.60;;
12966;SDS011;6548;49.996;8.238;2023-08-06T04:26:17;2.88;;;1.38;;
12966;SDS011;6548;49.996;8.238;2023-08-06T04:28:43;6.75;;;1.13;;
12966;SDS011;6548;49.996;8.238;2023-08-06T04:31:08;4.85;;;1.20;;
12966;SDS011;6548;49.996;8.238;2023-08-06T04:33:34;2.42;;;1.20;;
12966;SDS011;6548;49.996;8.238;2023-08-06T04:35:59;2.78;;;1.30;;
12966;SDS011;6548;49.996;8.238;2023-08-06T04:38:25;3.00;;;1.00;;
12966;SDS011;6548;49.996;8.238;2023-08-06T04:40:51;5.35;;;1.55;;
12966;SDS011;6548;49.996;8.238;2023-08-06T04:43:17;3.08;;;1.00;;
12966;SDS011;6548;49.996;8.238;2023-08-06T04:45:49;1.95;;;1.40;;
12966;SDS011;6548;49.996;8.238;2023-08-06T04:48:15;2.63;;;1.00;;
12966;SDS011;6548;49.996;8.238;2023-08-06T04:50:45;5.55;;;1.20;;
12966;SDS011;6548;49.996;8.238;2023-08-06T04:53:11;2.42;;;1.10;;
12966;SDS011;6548;49.996;8.238;2023-08-06T04:55:37;6.55;;;1.10;;
12966;SDS011;6548;49.996;8.238;2023-08-06T04:58:03;2.58;;;1.10;;
12966;SDS011;6548;49.996;8.238;2023-08-06T05:00:29;3.13;;;1.20;;
12966;SDS011;6548;49.996;8.238;2023-08-06T05:02:54;3.33;;;0.80;;
12966;SDS011;6548;49.996;8.238;2023-08-06T05:05:20;1.63;;;0.85;;
12966;SDS011;6548;49.996;8.238;2023-08-06T05:07:48;1.17;;;0.80;;
12966;SDS011;6548;49.996;8.238;2023-08-06T05:10:14;3.55;;;0.88;;
12966;SDS011;6548;49.996;8.238;2023-08-06T05:12:40;1.73;;;0.80;;
12966;SDS011;6548;49.996;8.238;2023-08-06T05:15:06;3.28;;;1.63;;
12966;SDS011;6548;49.996;8.238;2023-08-06T05:17:32;2.40;;;0.75;;
12966;SDS011;6548;49.996;8.238;2023-08-06T05:19:57;1.52;;;0.73;;
12966;SDS011;6548;49.996;8.238;2023-08-06T05:22:23;2.00;;;0.73;;
12966;SDS011;6548;49.996;8.238;2023-08-06T05:24:48;3.70;;;1.27;;
12966;SDS011;6548;49.996;8.238;2023-08-06T05:27:14;1.73;;;0.90;;
12966;SDS011;6548;49.996;8.238;2023-08-06T05:29:39;2.20;;;0.98;;
12966;SDS011;6548;49.996;8.238;2023-08-06T05:32:05;3.55;;;1.38;;
12966;SDS011;6548;49.996;8.238;2023-08-06T05:34:31;1.55;;;0.85;;
12966;SDS011;6548;49.996;8.238;2023-08-06T05:36:56;2.10;;;0.65;;
12966;SDS011;6548;49.996;8.238;2023-08-06T05:39:22;1.20;;;0.75;;
12966;SDS011;6548;49.996;8.238;2023-08-06T05:41:47;1.98;;;0.75;;
12966;SDS011;6548;49.996;8.238;2023-08-06T05:44:13;2.17;;;1.25;;
12966;SDS011;6548;49.996;8.238;2023-08-06T05:46:38;3.40;;;0.98;;
12966;SDS011;6548;49.996;8.238;2023-08-06T05:49:04;1.05;;;0.70;;
12966;SDS011;6548;49.996;8.238;2023-08-06T05:51:30;0.82;;;0.50;;
12966;SDS011;6548;49.996;8.238;2023-08-06T05:53:55;4.38;;;1.70;;
12966;SDS011;6548;49.996;8.238;2023-08-06T05:56:21;0.88;;;0.70;;
12966;SDS011;6548;49.996;8.238;2023-08-06T05:58:46;1.90;;;1.30;;
12966;SDS011;6548;49.996;8.238;2023-08-06T06:01:12;1.15;;;0.70;;
12966;SDS011;6548;49.996;8.238;2023-08-06T06:03:38;0.70;;;0.60;;
12966;SDS011;6548;49.996;8.238;2023-08-06T06:06:04;0.98;;;0.40;;
12966;SDS011;6548;49.996;8.238;2023-08-06T06:08:29;1.67;;;0.50;;
12966;SDS011;6548;49.996;8.238;2023-08-06T06:10:58;0.70;;;0.50;;
12966;SDS011;6548;49.996;8.238;2023-08-06T06:13:23;0.73;;;0.50;;
12966;SDS011;6548;49.996;8.238;2023-08-06T06:15:49;1.80;;;0.40;;
12966;SDS011;6548;49.996;8.238;2023-08-06T06:18:14;1.38;;;0.40;;
12966;SDS011;6548;49.996;8.238;2023-08-06T06:20:43;1.40;;;0.50;;
12966;SDS011;6548;49.996;8.238;2023-08-06T06:23:08;0.73;;;0.50;;
12966;SDS011;6548;49.996;8.238;2023-08-06T06:25:34;0.85;;;0.35;;
12966;SDS011;6548;49.996;8.238;2023-08-06T06:27:59;1.45;;;0.40;;
12966;SDS011;6548;49.996;8.238;2023-08-06T06:30:25;0.73;;;0.43;;
12966;SDS011;6548;49.996;8.238;2023-08-06T06:32:50;1.90;;;0.30;;
12966;SDS011;6548;49.996;8.238;2023-08-06T06:35:16;3.55;;;0.52;;
12966;SDS011;6548;49.996;8.238;2023-08-06T06:37:41;1.48;;;0.40;;
12966;SDS011;6548;49.996;8.238;2023-08-06T06:40:07;2.17;;;0.60;;
12966;SDS011;6548;49.996;8.238;2023-08-06T06:42:32;1.58;;;0.57;;
12966;SDS011;6548;49.996;8.238;2023-08-06T06:44:58;1.48;;;0.57;;
12966;SDS011;6548;49.996;8.238;2023-08-06T06:47:24;0.80;;;0.50;;
12966;SDS011;6548;49.996;8.238;2023-08-06T06:49:49;0.50;;;0.50;;
12966;SDS011;6548;49.996;8.238;2023-08-06T06:52:15;0.50;;;0.50;;
12966;SDS011;6548;49.996;8.238;2023-08-06T06:54:40;1.05;;;0.60;;
12966;SDS011;6548;49.996;8.238;2023-08-06T06:57:06;2.17;;;0.60;;
12966;SDS011;6548;49.996;8.238;2023-08-06T06:59:31;1.40;;;0.60;;
12966;SDS011;6548;49.996;8.238;2023-08-06T07:01:57;0.60;;;0.50;;
12966;SDS011;6548;49.996;8.238;2023-08-06T07:04:22;0.80;;;0.52;;
12966;SDS011;6548;49.996;8.238;2023-08-06T07:06:48;0.68;;;0.52;;
12966;SDS011;6548;49.996;8.238;2023-08-06T07:09:13;0.40;;;0.35;;
12966;SDS011;6548;49.996;8.238;2023-08-06T07:11:39;0.50;;;0.50;;
12966;SDS011;6548;49.996;8.238;2023-08-06T07:14:04;1.33;;;0.40;;
12966;SDS011;6548;49.996;8.238;2023-08-06T07:16:30;2.20;;;0.50;;
12966;SDS011;6548;49.996;8.238;2023-08-06T07:18:55;1.75;;;0.60;;
12966;SDS011;6548;49.996;8.238;2023-08-06T07:21:21;0.30;;;0.30;;
12966;SDS011;6548;49.996;8.238;2023-08-06T07:23:46;0.50;;;0.50;;
12966;SDS011;6548;49.996;8.238;2023-08-06T07:26:14;2.15;;;0.50;;
12966;SDS011;6548;49.996;8.238;2023-08-06T07:28:40;0.43;;;0.43;;
12966;SDS011;6548;49.996;8.238;2023-08-06T07:31:05;1.40;;;0.40;;
12966;SDS011;6548;49.996;8.238;2023-08-06T07:33:31;1.05;;;0.35;;
12966;SDS011;6548;49.996;8.238;2023-08-06T07:35:57;1.50;;;0.40;;
12966;SDS011;6548;49.996;8.238;2023-08-06T07:38:23;2.35;;;0.30;;
12966;SDS011;6548;49.996;8.238;2023-08-06T07:40:49;1.20;;;0.40;;
12966;SDS011;6548;49.996;8.238;2023-08-06T07:43:14;0.35;;;0.35;;
12966;SDS011;6548;49.996;8.238;2023-08-06T07:45:40;0.47;;;0.47;;
12966;SDS011;6548;49.996;8.238;2023-08-06T07:48:05;1.13;;;0.30;;
12966;SDS011;6548;49.996;8.238;2023-08-06T07:50:31;1.10;;;0.50;;
12966;SDS011;6548;49.996;8.238;2023-08-06T07:52:56;0.25;;;0.25;;
12966;SDS011;6548;49.996;8.238;2023-08-06T07:55:22;0.50;;;0.45;;
12966;SDS011;6548;49.996;8.238;2023-08-06T07:57:47;0.20;;;0.20;;
12966;SDS011;6548;49.996;8.238;2023-08-06T08:00:13;0.70;;;0.30;;
12966;SDS011;6548;49.996;8.238;2023-08-06T08:02:38;0.45;;;0.40;;
12966;SDS011;6548;49.996;8.238;2023-08-06T08:05:04;0.85;;;0.32;;
12966;SDS011;6548;49.996;8.238;2023-08-06T08:07:32;0.38;;;0.30;;
12966;SDS011;6548;49.996;8.238;2023-08-06T08:09:57;0.40;;;0.20;;
12966;SDS011;6548;49.996;8.238;2023-08-06T08:12:23;1.17;;;0.40;;
12966;SDS011;6548;49.996;8.238;2023-08-06T08:14:49;0.73;;;0.20;;
12966;SDS011;6548;49.996;8.238;2023-08-06T08:17:14;1.65;;;0.43;;
12966;SDS011;6548;49.996;8.238;2023-08-06T08:19:40;0.25;;;0.22;;
12966;SDS011;6548;49.996;8.238;2023-08-06T08:22:05;0.65;;;0.40;;
12966;SDS011;6548;49.996;8.238;2023-08-06T08:24:31;0.30;;;0.30;;
12966;SDS011;6548;49.996;8.238;2023-08-06T08:26:57;0.38;;;0.38;;
12966;SDS011;6548;49.996;8.238;2023-08-06T08:29:22;0.63;;;0.30;;
12966;SDS011;6548;49.996;8.238;2023-08-06T08:31:48;0.73;;;0.30;;
12966;SDS011;6548;49.996;8.238;2023-08-06T08:34:18;0.40;;;0.32;;
12966;SDS011;6548;49.996;8.238;2023-08-06T08:36:43;1.23;;;0.40;;
12966;SDS011;6548;49.996;8.238;2023-08-06T08:39:12;1.63;;;0.52;;
12966;SDS011;6548;49.996;8.238;2023-08-06T08:41:38;0.75;;;0.40;;
12966;SDS011;6548;49.996;8.238;2023-08-06T08:44:04;0.70;;;0.60;;
12966;SDS011;6548;49.996;8.238;2023-08-06T08:46:37;0.40;;;0.28;;
12966;SDS011;6548;49.996;8.238;2023-08-06T08:49:05;0.43;;;0.28;;
12966;SDS011;6548;49.996;8.238;2023-08-06T08:51:31;1.02;;;0.50;;
12966;SDS011;6548;49.996;8.238;2023-08-06T08:53:59;1.45;;;0.50;;
12966;SDS011;6548;49.996;8.238;2023-08-06T08:56:27;0.45;;;0.30;;
12966;SDS011;6548;49.996;8.238;2023-08-06T08:58:52;0.60;;;0.52;;
12966;SDS011;6548;49.996;8.238;2023-08-06T09:01:20;0.47;;;0.30;;
12966;SDS011;6548;49.996;8.238;2023-08-06T09:03:47;4.68;;;0.70;;
12966;SDS011;6548;49.996;8.238;2023-08-06T09:06:12;1.55;;;0.50;;
12966;SDS011;6548;49.996;8.238;2023-08-06T09:08:41;1.25;;;0.55;;
12966;SDS011;6548;49.996;8.238;2023-08-06T09:11:12;0.38;;;0.35;;
12966;SDS011;6548;49.996;8.238;2023-08-06T09:13:38;0.30;;;0.30;;
12966;SDS011;6548;49.996;8.238;2023-08-06T09:16:04;1.75;;;0.47;;
12966;SDS011;6548;49.996;8.238;2023-08-06T09:18:30;2.05;;;0.43;;
12966;SDS011;6548;49.996;8.238;2023-08-06T09:20:56;1.15;;;0.30;;
12966;SDS011;6548;49.996;8.238;2023-08-06T09:23:29;1.17;;;0.50;;
12966;SDS011;6548;49.996;8.238;2023-08-06T09:25:56;0.88;;;0.38;;
12966;SDS011;6548;49.996;8.238;2023-08-06T09:28:22;1.42;;;0.40;;
12966;SDS011;6548;49.996;8.238;2023-08-06T09:30:49;0.68;;;0.50;;
12966;SDS011;6548;49.996;8.238;2023-08-06T09:33:18;1.02;;;0.50;;
12966;SDS011;6548;49.996;8.238;2023-08-06T09:35:45;0.35;;;0.35;;
12966;SDS011;6548;49.996;8.238;2023-08-06T09:38:13;0.95;;;0.38;;
12966;SDS011;6548;49.996;8.238;2023-08-06T09:40:38;1.38;;;0.65;;
12966;SDS011;6548;49.996;8.238;2023-08-06T09:43:05;0.20;;;0.20;;
12966;SDS011;6548;49.996;8.238;2023-08-06T09:45:32;0.30;;;0.30;;
12966;SDS011;6548;49.996;8.238;2023-08-06T09:48:00;2.38;;;0.32;;
12966;SDS011;6548;49.996;8.238;2023-08-06T09:50:33;0.20;;;0.20;;
12966;SDS011;6548;49.996;8.238;2023-08-06T09:53:04;0.30;;;0.30;;
12966;SDS011;6548;49.996;8.238;2023-08-06T09:55:30;0.25;;;0.13;;
12966;SDS011;6548;49.996;8.238;2023-08-06T09:57:58;0.57;;;0.30;;
12966;SDS011;6548;49.996;8.238;2023-08-06T10:00:24;0.93;;;0.40;;
12966;SDS011;6548;49.996;8.238;2023-08-06T10:02:51;2.25;;;0.30;;
12966;SDS011;6548;49.996;8.238;2023-08-06T10:05:20;0.30;;;0.20;;
12966;SDS011;6548;49.996;8.238;2023-08-06T10:07:47;0.25;;;0.10;;
12966;SDS011;6548;49.996;8.238;2023-08-06T10:10:15;1.13;;;0.40;;
12966;SDS011;6548;49.996;8.238;2023-08-06T10:12:45;0.45;;;0.30;;
12966;SDS011;6548;49.996;8.238;2023-08-06T10:15:14;0.28;;;0.28;;
12966;SDS011;6548;49.996;8.238;2023-08-06T10:17:42;1.48;;;0.30;;
12966;SDS011;6548;49.996;8.238;2023-08-06T10:20:10;0.20;;;0.20;;
12966;SDS011;6548;49.996;8.238;2023-08-06T10:22:36;0.20;;;0.20;;
12966;SDS011;6548;49.996;8.238;2023-08-06T10:25:09;1.85;;;0.50;;
12966;SDS011;6548;49.996;8.238;2023-08-06T10:27:35;0.20;;;0.20;;
12966;SDS011;6548;49.996;8.238;2023-08-06T10:33:09;1.75;;;0.30;;
12966;SDS011;6548;49.996;8.238;2023-08-06T10:38:11;0.88;;;0.25;;
12966;SDS011;6548;49.996;8.238;2023-08-06T10:40:47;0.30;;;0.30;;
12966;SDS011;6548;49.996;8.238;2023-08-06T10:46:02;1.05;;;0.20;;
12966;SDS011;6548;49.996;8.238;2023-08-06T10:48:35;0.43;;;0.22;;
12966;SDS011;6548;49.996;8.238;2023-08-06T10:51:02;0.10;;;0.10;;
12966;SDS011;6548;49.996;8.238;2023-08-06T10:53:29;0.20;;;0.20;;
12966;SDS011;6548;49.996;8.238;2023-08-06T10:55:55;0.20;;;0.20;;
12966;SDS011;6548;49.996;8.238;2023-08-06T10:58:21;4.55;;;0.20;;
12966;SDS011;6548;49.996;8.238;2023-08-06T11:00:46;0.10;;;0.00;;
12966;SDS011;6548;49.996;8.238;2023-08-06T11:03:12;0.15;;;0.10;;
12966;SDS011;6548;49.996;8.238;2023-08-06T11:05:38;0.10;;;0.10;;
12966;SDS011;6548;49.996;8.238;2023-08-06T11:08:04;0.00;;;0.00;;
12966;SDS011;6548;49.996;8.238;2023-08-06T11:10:29;0.98;;;0.55;;
12966;SDS011;6548;49.996;8.238;2023-08-06T11:13:00;0.20;;;0.13;;
12966;SDS011;6548;49.996;8.238;2023-08-06T11:15:27;0.10;;;0.10;;
12966;SDS011;6548;49.996;8.238;2023-08-06T11:17:52;0.98;;;0.40;;
12966;SDS011;6548;49.996;8.238;2023-08-06T11:20:18;0.10;;;0.10;;
12966;SDS011;6548;49.996;8.238;2023-08-06T11:22:47;0.13;;;0.10;;
12966;SDS011;6548;49.996;8.238;2023-08-06T11:25:12;0.35;;;0.28;;
12966;SDS011;6548;49.996;8.238;2023-08-06T11:27:38;0.22;;;0.22;;
12966;SDS011;6548;49.996;8.238;2023-08-06T11:30:03;1.17;;;0.20;;
12966;SDS011;6548;49.996;8.238;2023-08-06T11:32:30;0.73;;;0.20;;
12966;SDS011;6548;49.996;8.238;2023-08-06T11:34:55;0.10;;;0.10;;
12966;SDS011;6548;49.996;8.238;2023-08-06T11:37:21;0.75;;;0.30;;
12966;SDS011;6548;49.996;8.238;2023-08-06T11:39:50;0.38;;;0.20;;
12966;SDS011;6548;49.996;8.238;2023-08-06T11:42:16;0.20;;;0.20;;
12966;SDS011;6548;49.996;8.238;2023-08-06T11:44:42;0.52;;;0.30;;
12966;SDS011;6548;49.996;8.238;2023-08-06T11:47:14;0.30;;;0.30;;
12966;SDS011;6548;49.996;8.238;2023-08-06T11:52:14;0.63;;;0.40;;
12966;SDS011;6548;49.996;8.238;2023-08-06T11:54:44;0.32;;;0.20;;
12966;SDS011;6548;49.996;8.238;2023-08-06T11:57:11;1.58;;;0.22;;
12966;SDS011;6548;49.996;8.238;2023-08-06T11:59:37;0.57;;;0.30;;
12966;SDS011;6548;49.996;8.238;2023-08-06T12:02:07;1.23;;;0.45;;
12966;SDS011;6548;49.996;8.238;2023-08-06T12:07:42;0.77;;;0.70;;
12966;SDS011;6548;49.996;8.238;2023-08-06T12:10:09;0.70;;;0.32;;
12966;SDS011;6548;49.996;8.238;2023-08-06T12:12:35;0.85;;;0.50;;
12966;SDS011;6548;49.996;8.238;2023-08-06T12:15:02;0.30;;;0.30;;
12966;SDS011;6548;49.996;8.238;2023-08-06T12:17:28;0.95;;;0.50;;
12966;SDS011;6548;49.996;8.238;2023-08-06T12:19:54;0.60;;;0.55;;
12966;SDS011;6548;49.996;8.238;2023-08-06T12:22:19;0.73;;;0.40;;
12966;SDS011;6548;49.996;8.238;2023-08-06T12:24:45;0.82;;;0.40;;
12966;SDS011;6548;49.996;8.238;2023-08-06T12:27:11;1.08;;;0.50;;
12966;SDS011;6548;49.996;8.238;2023-08-06T12:29:41;1.58;;;0.50;;
12966;SDS011;6548;49.996;8.238;2023-08-06T12:32:11;0.40;;;0.35;;
12966;SDS011;6548;49.996;8.238;2023-08-06T12:34:37;1.55;;;0.43;;
12966;SDS011;6548;49.996;8.238;2023-08-06T12:37:04;0.65;;;0.57;;
12966;SDS011;6548;49.996;8.238;2023-08-06T12:39:30;2.15;;;1.25;;
12966;SDS011;6548;49.996;8.238;2023-08-06T12:41:56;0.70;;;0.50;;
12966;SDS011;6548;49.996;8.238;2023-08-06T12:44:22;0.70;;;0.45;;
12966;SDS011;6548;49.996;8.238;2023-08-06T12:46:49;1.40;;;0.60;;
12966;SDS011;6548;49.996;8.238;2023-08-06T12:49:16;0.60;;;0.50;;
12966;SDS011;6548;49.996;8.238;2023-08-06T12:51:41;1.42;;;0.77;;
12966;SDS011;6548;49.996;8.238;2023-08-06T12:54:08;1.63;;;1.30;;
12966;SDS011;6548;49.996;8.238;2023-08-06T12:56:33;1.80;;;0.50;;
12966;SDS011;6548;49.996;8.238;2023-08-06T12:58:59;1.13;;;0.60;;
12966;SDS011;6548;49.996;8.238;2023-08-06T13:01:25;1.00;;;0.70;;
12966;SDS011;6548;49.996;8.238;2023-08-06T13:03:50;0.90;;;0.60;;
12966;SDS011;6548;49.996;8.238;2023-08-06T13:06:16;2.10;;;0.68;;
12966;SDS011;6548;49.996;8.238;2023-08-06T13:08:41;3.00;;;0.80;;
12966;SDS011;6548;49.996;8.238;2023-08-06T13:11:07;0.98;;;0.65;;
12966;SDS011;6548;49.996;8.238;2023-08-06T13:13:32;2.35;;;0.68;;
12966;SDS011;6548;49.996;8.238;2023-08-06T13:15:58;1.50;;;0.70;;
12966;SDS011;6548;49.996;8.238;2023-08-06T13:18:23;3.25;;;0.88;;
12966;SDS011;6548;49.996;8.238;2023-08-06T13:20:49;0.98;;;0.68;;
12966;SDS011;6548;49.996;8.238;2023-08-06T13:23:17;1.27;;;1.17;;
12966;SDS011;6548;49.996;8.238;2023-08-06T13:25:43;0.75;;;0.60;;
12966;SDS011;6548;49.996;8.238;2023-08-06T13:28:08;2.58;;;0.70;;
12966;SDS011;6548;49.996;8.238;2023-08-06T13:30:35;0.68;;;0.68;;
12966;SDS011;6548;49.996;8.238;2023-08-06T13:33:06;0.38;;;0.30;;
12966;SDS011;6548;49.996;8.238;2023-08-06T13:35:32;1.58;;;0.30;;
12966;SDS011;6548;49.996;8.238;2023-08-06T13:37:58;1.05;;;0.57;;
12966;SDS011;6548;49.996;8.238;2023-08-06T13:40:23;1.00;;;0.20;;
12966;SDS011;6548;49.996;8.238;2023-08-06T13:42:49;0.52;;;0.30;;
12966;SDS011;6548;49.996;8.238;2023-08-06T13:45:14;1.33;;;0.30;;
12966;SDS011;6548;49.996;8.238;2023-08-06T13:47:40;0.43;;;0.22;;
12966;SDS011;6548;49.996;8.238;2023-08-06T13:50:06;0.45;;;0.30;;
12966;SDS011;6548;49.996;8.238;2023-08-06T13:52:32;0.30;;;0.22;;
12966;SDS011;6548;49.996;8.238;2023-08-06T13:54:58;0.75;;;0.35;;
12966;SDS011;6548;49.996;8.238;2023-08-06T13:57:24;0.95;;;0.65;;
12966;SDS011;6548;49.996;8.238;2023-08-06T13:59:49;2.05;;;0.35;;
12966;SDS011;6548;49.996;8.238;2023-08-06T14:02:14;1.45;;;0.50;;
12966;SDS011;6548;49.996;8.238;2023-08-06T14:04:40;2.05;;;0.50;;
12966;SDS011;6548;49.996;8.238;2023-08-06T14:07:05;0.50;;;0.40;;
12966;SDS011;6548;49.996;8.238;2023-08-06T14:09:31;0.32;;;0.17;;
12966;SDS011;6548;49.996;8.238;2023-08-06T14:11:57;1.58;;;0.50;;
12966;SDS011;6548;49.996;8.238;2023-08-06T14:14:22;0.43;;;0.30;;
12966;SDS011;6548;49.996;8.238;2023-08-06T14:16:51;0.90;;;0.32;;
12966;SDS011;6548;49.996;8.238;2023-08-06T14:19:17;1.55;;;0.30;;
12966;SDS011;6548;49.996;8.238;2023-08-06T14:21:42;0.30;;;0.20;;
12966;SDS011;6548;49.996;8.238;2023-08-06T14:24:08;0.63;;;0.50;;
12966;SDS011;6548;49.996;8.238;2023-08-06T14:26:33;0.68;;;0.20;;
12966;SDS011;6548;49.996;8.238;2023-08-06T14:29:00;1.00;;;0.50;;
12966;SDS011;6548;49.996;8.238;2023-08-06T14:31:26;1.17;;;0.32;;
12966;SDS011;6548;49.996;8.238;2023-08-06T14:33:51;0.60;;;0.30;;
12966;SDS011;6548;49.996;8.238;2023-08-06T14:36:17;0.30;;;0.20;;
12966;SDS011;6548;49.996;8.238;2023-08-06T14:38:42;0.22;;;0.20;;
12966;SDS011;6548;49.996;8.238;2023-08-06T14:41:08;0.17;;;0.13;;
12966;SDS011;6548;49.996;8.238;2023-08-06T14:43:33;0.55;;;0.20;;
12966;SDS011;6548;49.996;8.238;2023-08-06T14:45:59;0.75;;;0.20;;
12966;SDS011;6548;49.996;8.238;2023-08-06T14:48:24;0.10;;;0.10;;
12966;SDS011;6548;49.996;8.238;2023-08-06T14:50:50;0.10;;;0.10;;
12966;SDS011;6548;49.996;8.238;2023-08-06T14:53:15;0.03;;;0.03;;
12966;SDS011;6548;49.996;8.238;2023-08-06T14:55:41;0.10;;;0.10;;
12966;SDS011;6548;49.996;8.238;2023-08-06T14:58:06;0.50;;;0.13;;
12966;SDS011;6548;49.996;8.238;2023-08-06T15:00:32;0.43;;;0.20;;
12966;SDS011;6548;49.996;8.238;2023-08-06T15:02:57;0.50;;;0.30;;
12966;SDS011;6548;49.996;8.238;2023-08-06T15:05:24;0.20;;;0.20;;
12966;SDS011;6548;49.996;8.238;2023-08-06T15:07:50;0.10;;;0.10;;
12966;SDS011;6548;49.996;8.238;2023-08-06T15:10:17;0.65;;;0.10;;
12966;SDS011;6548;49.996;8.238;2023-08-06T15:12:43;0.10;;;0.10;;